Time;durP1;ratioP1;P1;durP2;ratioP2;P2;SDS_P1;SDS_P2;PMS_P1;PMS_P2;Temp;Humidity;BMP_temperature;BMP_pressure;BME280_temperature;BME280_humidity;BME280_pressure;Samples;Min_cycle;Max_cycle;Signal;HPM_P1;HPM_P2
2023/08/08 00:01:18;;;;;;;4.13;3.22;;;;;;;11.63;79.12;100206.59;10135135;29;20067;-77
2023/08/08 00:06:21;;;;;;;5.93;3.60;;;;;;;11.50;80.26;100199.59;10131430;29;20400;-77
2023/08/08 00:11:25;;;;;;;5.90;3.47;;;;;;;11.64;79.62;100202.91;10129179;29;20059;-78
2023/08/08 00:16:28;;;;;;;4.60;3.70;;;;;;;11.71;79.29;100193.28;10132719;29;20055;-77
2023/08/08 00:21:30;;;;;;;12.85;3.78;;;;;;;11.72;79.29;100184.25;10130854;29;20048;-77
2023/08/08 00:26:35;;;;;;;7.95;4.03;;;;;;;11.70;79.32;100183.53;10131513;29;20137;-77
2023/08/08 00:31:38;;;;;;;11.43;6.03;;;;;;;11.73;79.93;100176.03;10131166;29;20051;-79
2023/08/08 00:36:41;;;;;;;7.20;4.90;;;;;;;11.69;80.39;100163.00;10135779;29;20052;-76
2023/08/08 00:41:45;;;;;;;11.02;4.75;;;;;;;11.97;78.87;100164.06;10151036;29;20056;-77
2023/08/08 00:46:50;;;;;;;5.05;4.00;;;;;;;11.94;79.08;100159.81;10132281;29;20048;-77
2023/08/08 00:51:54;;;;;;;11.35;5.20;;;;;;;12.11;78.37;100155.56;10136312;29;20059;-78
2023/08/08 00:56:58;;;;;;;11.27;5.60;;;;;;;11.83;79.70;100154.53;10127655;29;20048;-77
2023/08/08 01:02:01;;;;;;;7.53;4.80;;;;;;;12.12;78.68;100157.28;10128826;29;20067;-77
2023/08/08 01:07:11;;;;;;;12.32;6.55;;;;;;;12.10;78.51;100145.81;10128308;29;20110;-77
2023/08/08 01:12:16;;;;;;;13.05;5.80;;;;;;;11.96;79.21;100140.84;10127220;29;20131;-78
2023/08/08 01:17:20;;;;;;;8.18;5.63;;;;;;;12.22;78.16;100138.44;10132142;29;20060;-77
2023/08/08 01:22:30;;;;;;;8.10;4.90;;;;;;;12.13;78.87;100123.97;10130231;29;20055;-76
2023/08/08 01:27:35;;;;;;;9.73;5.05;;;;;;;12.25;78.26;100126.53;10138270;28;20056;-79
2023/08/08 01:32:38;;;;;;;7.28;3.95;;;;;;;12.17;78.66;100117.31;10150316;28;20047;-77
2023/08/08 01:37:47;;;;;;;10.05;4.72;;;;;;;11.98;78.93;100121.84;10130247;29;20063;-77
2023/08/08 01:42:52;;;;;;;10.10;4.70;;;;;;;12.41;77.80;100117.91;10129583;29;20054;-78
2023/08/08 01:47:55;;;;;;;7.78;4.75;;;;;;;12.15;78.68;100113.09;10127326;29;20138;-78
2023/08/08 01:52:58;;;;;;;9.40;4.25;;;;;;;12.24;78.25;100122.16;10127988;29;20090;-77
2023/08/08 01:58:02;;;;;;;8.82;3.63;;;;;;;12.32;78.02;100136.63;10136482;28;20613;-80
2023/08/08 02:03:05;;;;;;;6.00;4.03;;;;;;;12.32;77.99;100116.94;10127709;29;20048;-78
2023/08/08 02:08:08;;;;;;;5.80;3.47;;;;;;;12.24;78.43;100109.53;10120357;29;20052;-77
2023/08/08 02:13:13;;;;;;;5.15;3.65;;;;;;;12.10;79.10;100102.72;10134532;29;20044;-78
2023/08/08 02:18:16;;;;;;;3.35;3.00;;;;;;;12.35;77.83;100108.56;10135685;28;20079;-77
2023/08/08 02:23:19;;;;;;;8.30;3.20;;;;;;;12.04;78.83;100106.00;10132113;29;20893;-77
2023/08/08 02:28:23;;;;;;;4.53;3.50;;;;;;;12.44;77.49;100091.53;10137233;28;20508;-78
2023/08/08 02:33:26;;;;;;;4.82;2.60;;;;;;;12.26;78.58;100087.81;10144640;29;20063;-78
2023/08/08 02:38:28;;;;;;;4.00;3.65;;;;;;;12.14;78.94;100084.44;10152554;28;20062;-77
2023/08/08 02:43:33;;;;;;;6.40;3.22;;;;;;;12.05;79.74;100094.22;10136678;29;20067;-78
2023/08/08 02:48:36;;;;;;;4.97;3.05;;;;;;;12.36;78.44;100080.63;10135620;29;20071;-78
2023/08/08 02:53:38;;;;;;;3.40;2.33;;;;;;;12.01;79.56;100082.00;10125239;29;20048;-77
2023/08/08 02:58:43;;;;;;;4.97;3.22;;;;;;;11.75;80.31;100079.03;10139647;29;20048;-78
2023/08/08 03:03:46;;;;;;;4.30;2.15;;;;;;;11.88;80.36;100087.69;10138151;29;20552;-77
2023/08/08 03:08:50;;;;;;;4.70;2.78;;;;;;;11.82;80.24;100074.81;10139726;29;20044;-77
2023/08/08 03:13:54;;;;;;;3.05;2.67;;;;;;;11.87;80.34;100072.50;10139253;29;20048;-78
2023/08/08 03:18:58;;;;;;;3.58;2.55;;;;;;;11.92;79.49;100061.34;10120906;29;20048;-78
2023/08/08 03:24:01;;;;;;;4.70;2.50;;;;;;;11.83;80.24;100056.81;10147413;28;20576;-78
2023/08/08 03:29:09;;;;;;;3.88;3.15;;;;;;;11.95;79.75;100061.91;10130802;29;20058;-79
2023/08/08 03:34:17;;;;;;;6.05;2.67;;;;;;;11.45;81.87;100050.38;10135455;29;20127;-78
2023/08/08 03:39:20;;;;;;;3.85;3.55;;;;;;;11.65;81.47;100052.09;10130472;29;20526;-79
2023/08/08 03:44:25;;;;;;;4.05;3.65;;;;;;;12.12;79.36;100046.91;10147889;28;20062;-78
2023/08/08 03:49:28;;;;;;;5.75;3.30;;;;;;;11.82;80.93;100036.25;10130828;29;21281;-78
2023/08/08 03:54:31;;;;;;;6.18;4.05;;;;;;;11.80;81.32;100041.78;10134176;29;20078;-78
2023/08/08 03:59:35;;;;;;;9.32;5.10;;;;;;;12.04;80.24;100029.75;10130480;29;20044;-78
2023/08/08 04:04:38;;;;;;;9.15;5.00;;;;;;;11.81;81.13;100035.41;10136723;28;20048;-78
2023/08/08 04:09:42;;;;;;;7.80;4.10;;;;;;;11.67;81.99;100033.97;10140330;28;20152;-77
2023/08/08 04:14:46;;;;;;;8.57;5.97;;;;;;;11.79;81.98;100039.22;10140309;28;20056;-79
2023/08/08 04:19:49;;;;;;;15.57;6.80;;;;;;;12.17;80.75;100038.38;10127701;29;20075;-78
2023/08/08 04:24:52;;;;;;;10.25;7.15;;;;;;;11.84;82.65;100039.66;10141563;29;20522;-79
2023/08/08 04:29:56;;;;;;;10.52;6.65;;;;;;;11.94;82.58;100032.44;10145304;29;20055;-76
2023/08/08 04:34:59;;;;;;;7.97;5.97;;;;;;;11.86;82.52;100038.53;10149225;28;20140;-77
2023/08/08 04:40:02;;;;;;;7.18;5.93;;;;;;;11.92;82.66;100032.56;10130784;29;20048;-78
2023/08/08 04:45:08;;;;;;;12.85;7.90;;;;;;;12.12;81.55;100027.19;10148268;28;20048;-78
2023/08/08 04:50:11;;;;;;;7.13;5.32;;;;;;;11.90;83.27;100031.00;10138475;29;20052;-77
2023/08/08 04:55:14;;;;;;;14.23;7.88;;;;;;;12.07;82.32;100013.31;10134706;29;20067;-78
2023/08/08 05:00:18;;;;;;;10.73;7.03;;;;;;;12.08;82.49;100029.31;10132634;29;20056;-77
2023/08/08 05:05:21;;;;;;;11.13;9.20;;;;;;;12.26;82.14;100034.84;10131962;29;20696;-77
2023/08/08 05:10:24;;;;;;;17.50;10.38;;;;;;;12.29;82.51;100015.72;10133729;28;20531;-78
2023/08/08 05:15:28;;;;;;;14.95;9.18;;;;;;;12.54;81.37;100013.41;10131376;29;20044;-79
2023/08/08 05:20:31;;;;;;;12.43;8.27;;;;;;;12.34;82.51;100005.38;10142419;29;20579;-78
2023/08/08 05:25:34;;;;;;;12.63;8.20;;;;;;;12.23;82.28;100008.22;10141204;28;20070;-80
2023/08/08 05:30:39;;;;;;;13.65;8.60;;;;;;;12.57;81.43;100005.03;10147421;28;21200;-78
2023/08/08 05:35:41;;;;;;;10.93;5.90;;;;;;;12.33;82.37;100027.06;10149331;28;20129;-78
2023/08/08 05:40:45;;;;;;;12.32;7.50;;;;;;;12.44;81.86;100013.41;10145745;29;20051;-79
2023/08/08 05:45:49;;;;;;;16.25;8.90;;;;;;;12.58;80.90;100015.66;10133861;29;20062;-77
2023/08/08 05:50:52;;;;;;;13.90;8.63;;;;;;;12.29;82.54;100025.66;10126348;29;20700;-78
2023/08/08 05:55:56;;;;;;;14.30;9.45;;;;;;;12.56;81.70;100019.47;10133668;28;20047;-78
2023/08/08 06:01:00;;;;;;;16.40;8.40;;;;;;;12.77;80.40;100011.19;10132076;28;20578;-79
2023/08/08 06:06:03;;;;;;;14.70;7.55;;;;;;;12.94;80.30;100023.03;10133419;29;20055;-78
2023/08/08 06:11:07;;;;;;;12.13;8.07;;;;;;;13.07;79.79;100006.53;10129257;29;20056;-78
2023/08/08 06:16:11;;;;;;;11.88;8.82;;;;;;;13.53;78.00;100012.81;10127710;29;21167;-78
2023/08/08 06:21:14;;;;;;;14.55;8.30;;;;;;;13.37;78.57;100016.19;10131969;28;21183;-78
2023/08/08 06:26:17;;;;;;;10.20;6.72;;;;;;;13.89;77.00;100019.09;10134980;29;20052;-77
2023/08/08 06:31:22;;;;;;;11.07;6.72;;;;;;;14.15;75.23;100024.53;10141937;29;20052;-78
2023/08/08 06:36:24;;;;;;;9.65;6.63;;;;;;;13.70;77.18;100022.78;10133941;29;20048;-78
2023/08/08 06:41:27;;;;;;;11.20;6.28;;;;;;;13.60;78.06;100030.97;10128820;29;20504;-78
2023/08/08 06:46:32;;;;;;;10.50;6.97;;;;;;;13.88;76.54;100034.44;10128526;29;20044;-77
2023/08/08 06:51:35;;;;;;;7.93;6.85;;;;;;;13.82;77.25;100024.25;10127785;29;20056;-78
2023/08/08 06:56:37;;;;;;;9.77;6.68;;;;;;;13.69;77.02;100039.97;10126870;29;20048;-76
2023/08/08 07:01:42;;;;;;;10.30;6.60;;;;;;;14.16;75.59;100020.84;10127657;29;20412;-77
2023/08/08 07:06:45;;;;;;;13.82;6.50;;;;;;;14.20;75.40;100019.50;10140573;29;20056;-77
2023/08/08 07:11:48;;;;;;;15.30;7.28;;;;;;;14.42;74.50;100020.88;10133768;29;20052;-78
2023/08/08 07:16:53;;;;;;;13.52;7.47;;;;;;;14.07;75.04;100019.06;10139499;28;20118;-78
2023/08/08 07:21:56;;;;;;;23.40;9.27;;;;;;;14.23;74.14;100021.88;10142354;28;20055;-77
2023/08/08 07:27:00;;;;;;;12.13;7.82;;;;;;;13.88;76.15;100015.53;10132177;29;20056;-78
2023/08/08 07:32:05;;;;;;;11.35;9.45;;;;;;;13.88;76.63;100014.69;10139610;29;20052;-78
2023/08/08 07:37:08;;;;;;;11.00;7.88;;;;;;;13.87;75.53;99991.38;10132979;28;20048;-78
2023/08/08 07:42:11;;;;;;;10.65;8.70;;;;;;;13.91;75.91;100012.53;10133173;28;20048;-76
2023/08/08 07:47:15;;;;;;;11.30;9.07;;;;;;;14.47;74.42;100001.50;10133653;28;20127;-77
2023/08/08 07:52:18;;;;;;;11.00;8.30;;;;;;;15.19;70.96;100007.44;10141013;28;20072;-77
2023/08/08 07:57:21;;;;;;;13.38;8.98;;;;;;;14.58;73.52;99999.38;10132524;29;20052;-78
2023/08/08 08:02:26;;;;;;;15.40;9.68;;;;;;;14.99;71.43;99996.03;10137894;29;20194;-79
2023/08/08 08:07:29;;;;;;;14.70;10.25;;;;;;;15.68;69.38;99996.78;10143249;28;20040;-79
2023/08/08 08:12:33;;;;;;;18.23;10.20;;;;;;;15.47;69.76;99994.56;10141595;29;20048;-78
2023/08/08 08:17:37;;;;;;;8.88;7.50;;;;;;;14.96;69.10;99997.22;10136072;29;20052;-77
2023/08/08 08:22:40;;;;;;;17.02;9.20;;;;;;;14.09;72.29;99995.44;10146468;29;20067;-77
2023/08/08 08:27:43;;;;;;;18.58;10.43;;;;;;;14.25;74.17;99965.00;10148812;28;21175;-77
2023/08/08 08:32:47;;;;;;;14.82;12.52;;;;;;;13.91;76.62;99990.09;10139944;28;20052;-77
2023/08/08 08:37:50;;;;;;;17.17;10.63;;;;;;;12.43;86.22;99974.03;10134134;28;20052;-77
2023/08/08 08:42:53;;;;;;;26.55;17.83;;;;;;;12.51;90.54;99974.13;10129645;29;20054;-77
2023/08/08 08:47:58;;;;;;;28.58;21.02;;;;;;;12.63;90.88;99976.66;10132287;29;20516;-78
2023/08/08 08:53:02;;;;;;;33.33;19.98;;;;;;;13.26;89.40;99985.69;10130574;28;20044;-79
2023/08/08 08:58:06;;;;;;;22.30;16.13;;;;;;;13.71;86.47;99981.28;10128589;28;20913;-77
2023/08/08 09:03:11;;;;;;;16.65;11.73;;;;;;;14.26;79.07;99991.00;10136877;28;20780;-77
2023/08/08 09:08:15;;;;;;;12.52;9.32;;;;;;;14.24;76.68;99988.50;10121009;29;20068;-79
2023/08/08 09:13:18;;;;;;;14.73;10.60;;;;;;;14.27;78.29;99998.13;10130201;28;20106;-76
2023/08/08 09:18:24;;;;;;;11.57;8.68;;;;;;;13.96;77.40;99986.91;10132155;29;20192;-77
2023/08/08 09:23:27;;;;;;;13.98;9.98;;;;;;;14.67;75.93;99983.19;10129428;29;20044;-77
2023/08/08 09:28:30;;;;;;;10.10;6.72;;;;;;;14.97;72.56;99961.03;10132861;28;20052;-76
2023/08/08 09:33:35;;;;;;;12.13;8.05;;;;;;;16.20;68.83;99968.50;10133042;29;20056;-77
2023/08/08 09:38:37;;;;;;;10.85;7.70;;;;;;;15.21;70.72;99976.50;10128661;29;20423;-77
2023/08/08 09:43:40;;;;;;;9.50;6.18;;;;;;;14.70;71.68;99981.03;10131093;29;20060;-77
2023/08/08 09:48:46;;;;;;;10.73;7.07;;;;;;;15.18;70.19;99971.41;10127497;28;20107;-77
2023/08/08 09:53:49;;;;;;;9.68;6.72;;;;;;;15.32;68.89;99977.22;10127953;29;21265;-76
2023/08/08 09:58:53;;;;;;;9.02;6.05;;;;;;;16.51;66.22;99969.53;10128165;28;20531;-76
2023/08/08 10:03:58;;;;;;;9.40;4.72;;;;;;;17.07;63.23;99958.63;10117736;29;20083;-77
2023/08/08 10:09:03;;;;;;;7.80;4.47;;;;;;;16.31;65.13;99955.47;10131438;29;20091;-76
2023/08/08 10:14:07;;;;;;;8.25;3.72;;;;;;;15.66;65.34;99961.75;10127970;29;20052;-77
2023/08/08 10:19:11;;;;;;;9.60;3.95;;;;;;;16.28;64.53;99955.00;10143163;29;20143;-77
2023/08/08 10:24:14;;;;;;;5.13;3.53;;;;;;;17.51;60.58;99952.63;10145537;29;20060;-77
2023/08/08 10:29:19;;;;;;;6.55;2.97;;;;;;;17.49;57.69;99954.69;10125442;29;20048;-77
2023/08/08 10:34:28;;;;;;;2.70;1.80;;;;;;;16.95;54.74;99955.47;10131649;29;20192;-77
2023/08/08 10:39:31;;;;;;;2.80;1.42;;;;;;;17.22;54.84;99981.31;10134983;29;20048;-77
2023/08/08 10:44:42;;;;;;;5.15;1.42;;;;;;;16.82;55.83;99968.75;10128769;28;21319;-77
2023/08/08 10:49:58;;;;;;;6.20;2.30;;;;;;;16.01;58.86;99972.41;10132851;28;20423;-77
2023/08/08 10:55:02;;;;;;;5.80;2.00;;;;;;;16.61;57.47;99968.47;10124203;28;20075;-77
2023/08/08 11:00:17;;;;;;;2.42;1.20;;;;;;;16.56;58.00;99964.44;10131356;28;20532;-77
2023/08/08 11:05:22;;;;;;;3.85;1.75;;;;;;;16.03;58.92;99960.41;10136487;28;20145;-77
2023/08/08 11:10:30;;;;;;;3.63;1.65;;;;;;;16.35;59.47;99950.59;10132765;28;20051;-77
2023/08/08 11:15:33;;;;;;;3.50;1.85;;;;;;;16.43;57.10;99955.97;10133605;28;20079;-76
2023/08/08 11:20:39;;;;;;;4.35;1.15;;;;;;;16.71;54.99;99963.69;10133910;28;20048;-77
2023/08/08 11:25:44;;;;;;;3.40;1.42;;;;;;;17.54;53.21;99954.16;10132570;28;20068;-77
2023/08/08 11:30:47;;;;;;;3.10;1.50;;;;;;;18.28;51.23;99955.25;10132099;29;20081;-77
2023/08/08 11:35:51;;;;;;;1.90;1.08;;;;;;;18.41;50.29;99945.63;10135685;28;21615;-78
2023/08/08 11:40:55;;;;;;;2.70;1.13;;;;;;;17.31;52.51;99940.56;10131960;29;20190;-78
2023/08/08 11:46:00;;;;;;;1.63;1.00;;;;;;;16.97;52.99;99937.13;10132395;29;20048;-76
2023/08/08 11:51:06;;;;;;;3.72;1.50;;;;;;;17.43;51.87;99939.97;10127914;28;20064;-77
2023/08/08 11:56:09;;;;;;;1.83;1.15;;;;;;;18.41;51.11;99948.34;10133569;28;20064;-77
2023/08/08 12:01:13;;;;;;;4.32;1.10;;;;;;;17.35;52.29;99950.03;10141761;28;20058;-78
2023/08/08 12:06:19;;;;;;;1.00;0.77;;;;;;;16.63;53.21;99967.28;10140986;28;20067;-77
2023/08/08 12:11:22;;;;;;;2.28;0.93;;;;;;;16.24;56.77;99991.56;10135951;28;20515;-78
2023/08/08 12:16:29;;;;;;;3.45;1.20;;;;;;;17.06;53.85;99965.09;10134171;29;20505;-78
2023/08/08 12:21:36;;;;;;;2.15;1.30;;;;;;;17.55;52.51;99944.97;10145985;28;20048;-78
2023/08/08 12:26:39;;;;;;;1.90;0.95;;;;;;;17.26;52.75;99946.53;10159764;28;20047;-77
2023/08/08 12:31:42;;;;;;;2.47;1.10;;;;;;;17.88;51.44;99935.56;10141406;28;20043;-77
2023/08/08 12:36:46;;;;;;;1.85;1.25;;;;;;;18.47;50.03;99926.69;10136698;28;20515;-78
2023/08/08 12:41:49;;;;;;;1.63;0.88;;;;;;;18.13;49.92;99928.06;10139659;28;20527;-77
2023/08/08 12:46:52;;;;;;;1.60;0.65;;;;;;;19.11;47.22;99914.34;10129741;29;20548;-77
2023/08/08 12:51:57;;;;;;;1.98;0.90;;;;;;;19.95;45.68;99921.94;10136268;29;21190;-77
2023/08/08 12:57:00;;;;;;;4.65;1.17;;;;;;;19.48;46.40;99916.03;10131369;28;20051;-77
2023/08/08 13:02:03;;;;;;;1.65;0.85;;;;;;;19.45;47.19;99939.03;10133876;28;21651;-77
2023/08/08 13:07:08;;;;;;;1.42;0.88;;;;;;;19.21;46.42;99923.91;10132288;29;20052;-77
2023/08/08 13:12:11;;;;;;;2.40;0.73;;;;;;;18.55;47.98;99917.59;10153827;28;20052;-77
2023/08/08 13:17:14;;;;;;;0.50;0.50;;;;;;;18.03;47.78;99929.34;10150583;28;20055;-79
2023/08/08 13:22:19;;;;;;;2.00;0.80;;;;;;;17.94;49.14;99909.53;10154893;28;20060;-77
2023/08/08 13:27:22;;;;;;;1.45;0.80;;;;;;;16.42;53.83;99938.00;10137821;28;20068;-77
2023/08/08 13:32:25;;;;;;;2.53;1.60;;;;;;;16.89;55.21;99939.03;10122459;29;20071;-78
2023/08/08 13:37:29;;;;;;;1.67;0.60;;;;;;;16.83;54.41;99951.44;10138439;28;20412;-77
2023/08/08 13:42:32;;;;;;;2.35;0.93;;;;;;;17.91;53.36;99942.50;10137861;28;20141;-77
2023/08/08 13:47:35;;;;;;;5.63;0.70;;;;;;;18.87;51.13;99945.44;10140130;28;20048;-77
2023/08/08 13:52:39;;;;;;;2.63;0.70;;;;;;;19.51;48.92;99942.03;10134458;29;20048;-77
2023/08/08 13:57:42;;;;;;;2.33;0.88;;;;;;;20.43;46.90;99930.28;10130728;28;20055;-77
2023/08/08 14:02:45;;;;;;;3.05;0.80;;;;;;;19.84;46.83;99920.59;10138664;28;20508;-78
2023/08/08 14:07:50;;;;;;;1.48;0.77;;;;;;;18.76;48.67;99922.28;10139227;28;20048;-78
2023/08/08 14:12:53;;;;;;;2.45;0.60;;;;;;;17.85;51.02;99921.47;10146237;28;20058;-77
2023/08/08 14:17:55;;;;;;;1.20;0.70;;;;;;;;;;10141119;29;20060;-78
2023/08/08 14:23:00;;;;;;;1.58;0.80;;;;;;;18.43;50.79;99921.78;10140994;28;20051;-77
2023/08/08 14:28:03;;;;;;;2.40;0.80;;;;;;;18.24;51.00;99926.75;10144796;28;20516;-79
2023/08/08 14:33:06;;;;;;;1.95;1.13;;;;;;;18.24;50.74;99921.31;10147458;28;20059;-78
2023/08/08 14:38:11;;;;;;;2.17;0.90;;;;;;;18.45;48.34;99917.00;10147814;28;20059;-81
2023/08/08 14:43:14;;;;;;;0.77;0.50;;;;;;;17.95;48.26;99927.50;10145791;29;20640;-80
2023/08/08 14:48:17;;;;;;;1.45;0.57;;;;;;;18.42;47.45;99933.72;10160154;29;20055;-79
2023/08/08 14:53:21;;;;;;;1.40;0.65;;;;;;;19.27;46.14;99932.34;10162921;28;20059;-79
2023/08/08 14:58:24;;;;;;;1.25;0.70;;;;;;;18.95;45.69;99939.91;10150468;28;20054;-79
2023/08/08 15:03:29;;;;;;;1.25;0.60;;;;;;;18.41;46.33;99965.50;10157084;28;20067;-78
2023/08/08 15:08:33;;;;;;;2.45;0.68;;;;;;;19.19;45.45;99957.78;10161353;28;20056;-79
2023/08/08 15:13:36;;;;;;;4.32;0.85;;;;;;;18.47;46.47;99936.72;10147650;29;20059;-78
2023/08/08 15:18:39;;;;;;;2.95;0.88;;;;;;;19.02;45.05;99958.00;10144875;28;20052;-78
2023/08/08 15:23:43;;;;;;;2.67;0.70;;;;;;;18.59;46.79;99951.53;10142484;28;20072;-78
2023/08/08 15:28:46;;;;;;;2.10;1.15;;;;;;;17.98;48.08;99948.06;10142227;29;21146;-80
2023/08/08 15:33:51;;;;;;;0.70;0.70;;;;;;;17.62;48.55;99962.25;10152476;28;20171;-79
2023/08/08 15:38:55;;;;;;;2.83;0.90;;;;;;;17.30;53.87;99966.00;10146983;29;20051;-78
2023/08/08 15:43:58;;;;;;;1.80;0.70;;;;;;;16.71;52.23;99974.56;10154512;28;20060;-78
2023/08/08 15:49:01;;;;;;;4.13;1.00;;;;;;;18.50;48.61;99986.13;10157173;28;20055;-79
2023/08/08 15:54:06;;;;;;;3.00;0.90;;;;;;;18.48;48.00;99952.81;10151033;28;20698;-79
2023/08/08 15:59:09;;;;;;;1.35;0.70;;;;;;;19.70;45.85;99948.75;10147024;29;20058;-79
2023/08/08 16:04:14;;;;;;;3.28;0.70;;;;;;;18.85;46.64;99961.13;10141186;29;20621;-78
2023/08/08 16:09:19;;;;;;;0.80;0.70;;;;;;;18.22;48.34;99969.59;10153441;29;20058;-78
2023/08/08 16:14:22;;;;;;;2.40;0.82;;;;;;;18.32;48.73;99961.16;10132105;28;20044;-78
2023/08/08 16:19:24;;;;;;;1.08;0.73;;;;;;;18.20;49.56;99982.50;10127495;28;20051;-78
2023/08/08 16:24:29;;;;;;;2.80;1.00;;;;;;;17.73;50.79;99986.25;10144340;28;20062;-79
2023/08/08 16:29:32;;;;;;;2.55;1.17;;;;;;;18.05;51.17;99974.34;10134796;28;20410;-78
2023/08/08 16:34:35;;;;;;;0.75;0.52;;;;;;;17.18;51.43;99960.97;10142980;29;20146;-78
2023/08/08 16:39:39;;;;;;;3.85;1.27;;;;;;;17.58;51.42;99986.22;10133189;29;20055;-77
2023/08/08 16:44:42;;;;;;;1.10;0.95;;;;;;;17.14;50.41;99978.66;10140257;28;20052;-79
2023/08/08 16:49:45;;;;;;;1.23;0.90;;;;;;;17.00;50.91;99990.19;10139262;28;20052;-78
2023/08/08 16:54:49;;;;;;;1.35;0.90;;;;;;;16.66;54.36;100023.03;10135145;28;20143;-78
2023/08/08 16:59:56;;;;;;;2.30;1.45;;;;;;;15.05;71.39;100020.56;10129103;29;20063;-78
2023/08/08 17:04:59;;;;;;;3.85;1.23;;;;;;;14.65;67.73;100012.28;10138624;29;21177;-78
2023/08/08 17:10:04;;;;;;;1.05;0.80;;;;;;;16.71;61.79;100015.22;10122518;29;20902;-77
2023/08/08 17:15:08;;;;;;;1.17;1.08;;;;;;;16.40;61.49;100026.81;10141000;28;20048;-78
2023/08/08 17:20:12;;;;;;;1.63;1.08;;;;;;;16.27;61.21;100023.75;10133989;28;20059;-77
2023/08/08 17:25:17;;;;;;;1.17;1.08;;;;;;;15.80;61.98;100027.94;10137441;29;20059;-77
2023/08/08 17:30:21;;;;;;;2.25;1.20;;;;;;;15.71;61.69;100034.34;10132555;29;20051;-79
2023/08/08 17:35:23;;;;;;;1.38;1.20;;;;;;;15.55;62.07;100034.31;10141733;29;20047;-78
2023/08/08 17:40:28;;;;;;;1.42;1.10;;;;;;;15.70;61.49;100041.63;10134389;28;20150;-78
2023/08/08 17:45:31;;;;;;;1.30;1.20;;;;;;;16.05;60.86;100028.81;10125695;28;20048;-79
2023/08/08 17:50:34;;;;;;;2.45;0.85;;;;;;;19.04;52.01;100019.59;10132997;29;20052;-78
2023/08/08 17:55:39;;;;;;;0.90;0.90;;;;;;;17.68;55.54;100015.84;10137043;29;20483;-78
2023/08/08 18:00:42;;;;;;;2.85;1.17;;;;;;;15.87;60.61;100025.41;10138023;29;20039;-77
2023/08/08 18:05:45;;;;;;;2.35;1.10;;;;;;;15.82;60.71;100028.59;10126602;29;20120;-77
2023/08/08 18:10:49;;;;;;;3.00;1.50;;;;;;;15.73;61.10;100020.66;10131356;28;20051;-78
2023/08/08 18:15:54;;;;;;;3.10;0.90;;;;;;;15.45;61.47;100021.75;10132571;29;20448;-78
2023/08/08 18:20:57;;;;;;;1.60;1.02;;;;;;;15.51;61.04;100017.56;10130502;28;20052;-77
2023/08/08 18:26:02;;;;;;;2.67;1.10;;;;;;;15.56;61.63;100022.47;10129334;28;20062;-78
2023/08/08 18:31:05;;;;;;;2.72;1.35;;;;;;;15.55;61.63;100021.63;10135424;28;20044;-80
2023/08/08 18:42:57;;;;;;;4.80;1.55;;;;;;;15.29;62.24;100020.84;10127758;28;20040;-78
2023/08/08 18:48:00;;;;;;;2.53;1.55;;;;;;;15.05;62.78;100022.44;10128300;28;20104;-77
2023/08/08 18:53:03;;;;;;;3.47;1.05;;;;;;;15.13;61.55;100024.31;10134774;29;20052;-78
2023/08/08 18:58:07;;;;;;;1.88;1.30;;;;;;;14.87;62.51;100032.50;10130413;28;20056;-78
2023/08/08 19:03:10;;;;;;;2.42;1.27;;;;;;;14.88;62.18;100026.91;10144363;28;20072;-77
2023/08/08 19:08:13;;;;;;;1.70;1.05;;;;;;;15.20;61.54;100023.50;10135387;29;20048;-79
2023/08/08 19:13:17;;;;;;;2.13;1.00;;;;;;;14.97;62.27;100034.03;10130013;29;20067;-78
2023/08/08 19:18:20;;;;;;;1.40;1.13;;;;;;;14.90;62.21;100030.31;10138023;29;20226;-78
2023/08/08 19:23:23;;;;;;;3.90;1.23;;;;;;;14.73;62.64;100040.19;10137258;28;20554;-78
2023/08/08 19:28:27;;;;;;;1.95;1.23;;;;;;;14.77;63.14;100035.31;10138510;28;20131;-77
2023/08/08 19:33:30;;;;;;;1.33;1.13;;;;;;;14.73;62.98;100034.78;10141094;29;20131;-77
2023/08/08 19:38:33;;;;;;;2.45;1.30;;;;;;;14.82;63.39;100033.81;10138683;29;20124;-79
2023/08/08 19:43:37;;;;;;;5.00;1.08;;;;;;;14.97;63.21;100030.50;10128700;29;20048;-78
2023/08/08 19:48:40;;;;;;;7.80;1.30;;;;;;;14.74;63.94;100031.06;10136990;29;20056;-76
2023/08/08 19:53:43;;;;;;;4.90;1.58;;;;;;;14.72;64.75;100034.94;10132758;28;20051;-78
2023/08/08 19:58:47;;;;;;;1.38;1.10;;;;;;;14.85;64.25;100045.31;10132062;28;20107;-77
2023/08/08 20:03:50;;;;;;;3.08;1.20;;;;;;;14.95;63.70;100035.25;10136864;29;20050;-77
2023/08/08 20:08:54;;;;;;;5.30;1.40;;;;;;;14.87;64.51;100029.78;10134342;28;20082;-77
2023/08/08 20:13:59;;;;;;;1.30;0.93;;;;;;;14.86;64.78;100041.59;10134254;29;20063;-79
2023/08/08 20:19:02;;;;;;;3.13;1.23;;;;;;;14.63;65.78;100022.38;10137689;28;20052;-78
2023/08/08 20:24:06;;;;;;;2.03;0.90;;;;;;;14.15;67.64;100027.22;10137743;28;20693;-77
2023/08/08 20:29:12;;;;;;;3.83;1.25;;;;;;;14.56;67.25;100014.03;10134260;29;20160;-78
2023/08/08 20:34:15;;;;;;;2.35;1.60;;;;;;;14.53;67.44;100017.06;10132442;29;20059;-78
2023/08/08 20:39:18;;;;;;;4.60;1.50;;;;;;;14.37;66.75;100021.34;10135761;29;20052;-77
2023/08/08 20:44:23;;;;;;;4.25;1.27;;;;;;;14.49;67.04;100038.16;10133607;29;20063;-78
2023/08/08 20:49:26;;;;;;;2.53;1.38;;;;;;;14.48;67.72;100044.59;10132428;28;21197;-79
2023/08/08 20:54:28;;;;;;;2.83;1.08;;;;;;;14.55;67.37;100039.38;10129109;29;20056;-77
2023/08/08 20:59:33;;;;;;;3.72;1.52;;;;;;;14.73;67.29;100025.84;10135194;29;20048;-77
2023/08/08 21:04:35;;;;;;;4.15;1.60;;;;;;;14.56;67.86;100033.84;10132314;29;20048;-78
2023/08/08 21:09:39;;;;;;;2.75;1.33;;;;;;;14.57;68.12;100040.09;10123144;29;20048;-79
2023/08/08 21:14:43;;;;;;;2.15;1.65;;;;;;;14.49;68.22;100040.03;10127239;29;20055;-79
2023/08/08 21:19:46;;;;;;;8.20;1.50;;;;;;;14.15;69.41;100046.13;10132566;28;20051;-78
2023/08/08 21:24:49;;;;;;;2.20;1.35;;;;;;;14.25;69.60;100044.19;10131834;28;20048;-78
2023/08/08 21:29:53;;;;;;;5.15;1.75;;;;;;;14.07;70.21;100046.06;10132082;28;20051;-78
2023/08/08 21:34:56;;;;;;;2.25;1.35;;;;;;;14.08;70.66;100059.41;10129001;29;20044;-78
2023/08/08 21:39:59;;;;;;;4.70;1.73;;;;;;;14.00;71.13;100062.03;10132597;28;20052;-79
2023/08/08 21:45:04;;;;;;;3.30;1.50;;;;;;;14.55;69.37;100071.81;10129869;29;20056;-78
2023/08/08 21:50:08;;;;;;;3.45;1.80;;;;;;;14.64;69.26;100070.03;10130070;29;20126;-78
2023/08/08 21:55:11;;;;;;;3.75;1.73;;;;;;;14.46;70.45;100070.91;10132099;29;20099;-78
2023/08/08 22:00:17;;;;;;;2.70;1.38;;;;;;;14.07;72.35;100071.25;10128699;29;20186;-78
2023/08/08 22:05:20;;;;;;;4.45;1.65;;;;;;;14.13;73.58;100083.28;10130615;29;20139;-79
2023/08/08 22:10:23;;;;;;;4.85;2.40;;;;;;;13.54;78.04;100085.50;10129861;29;20056;-78
2023/08/08 22:15:28;;;;;;;2.65;1.73;;;;;;;13.38;80.60;100063.72;10128653;29;20412;-78
2023/08/08 22:20:31;;;;;;;2.67;1.77;;;;;;;12.94;83.17;100063.47;10125417;29;20052;-77
2023/08/08 22:25:34;;;;;;;3.08;2.17;;;;;;;13.06;85.18;100054.22;10146114;28;20058;-77
2023/08/08 22:30:38;;;;;;;4.93;2.33;;;;;;;12.72;85.69;100046.66;10135308;28;20735;-76
2023/08/08 22:35:41;;;;;;;6.43;2.40;;;;;;;12.82;85.77;100043.94;10134589;28;20058;-76
2023/08/08 22:40:44;;;;;;;6.90;2.80;;;;;;;13.07;86.36;100046.97;10144131;28;20074;-77
2023/08/08 22:45:51;;;;;;;5.43;2.80;;;;;;;13.18;86.88;100041.38;10161890;28;21319;-79
2023/08/08 22:50:54;;;;;;;6.07;2.95;;;;;;;13.17;87.03;100048.63;10138461;29;20127;-78
2023/08/08 22:55:57;;;;;;;7.15;3.10;;;;;;;13.01;87.51;100062.75;10151416;28;20139;-77
2023/08/08 23:01:01;;;;;;;3.70;2.63;;;;;;;13.03;87.44;100076.94;10152885;28;20055;-77
2023/08/08 23:06:04;;;;;;;4.43;2.88;;;;;;;12.59;88.17;100059.63;10147071;28;20048;-77
2023/08/08 23:11:07;;;;;;;5.95;2.90;;;;;;;12.39;88.72;100054.25;10128803;29;20754;-76
2023/08/08 23:16:11;;;;;;;4.68;3.10;;;;;;;12.51;88.83;100048.72;10140175;28;20063;-77
2023/08/08 23:21:14;;;;;;;6.57;3.03;;;;;;;12.30;89.05;100038.13;10153650;28;20056;-76
2023/08/08 23:26:17;;;;;;;7.18;2.70;;;;;;;12.30;88.91;100021.97;10142768;29;20076;-77